メインページ
METAR-TAF:

METAR-TAF

空港 :

広島空港

広島, 日本

緯度: 34-26N, 経度: 132-55E, 海抜: 331m

現時点の気象観測

当レポートは1時間7分前の11:00(UTC)に作成
東/南東の風 6kt、東/北東から南東の間で変化する
気温 15°C
湿度 67%
気圧 1018 hPa
視程10km以上
高度2000ftの雲はほとんどない
千切れ雲あり

METAR: RJOA 201100Z 11006KT 070V140 9999 FEW020 BKN/// 15/09 Q1018

時間: 21:07 (12:07 UTC)

予報

当レポートは1時間1分前の11:06(UTC)に作成
予報は20日の 12時(UTC)から 21日の 18時(UTC)まで有効
東/北東の風 10kt
視程10km以上
高度3000ftの雲はほとんどない
高度4500ftの雲は散在している

TAF: RJOA 201106Z 2012/2118 07010KT 9999 FEW030 SCT045

4,000以上の空港の気象観測と天気予報(METAR報とTAF報)

利用可能な観測所は地図上に黄色い丸と赤い丸で示す。

丸の上にカーソルを重ねると観測所名を参照できる。

次にクリックすると気象観測と天気予報を参照できる。

マップの切り替え:黒色「×」印の緑ボタンをクリックして拡大、「-」印の緑ボタンをクリックして縮小、緑色の三角印をクリックして隣りの地図に切り替え


METAR-TAF: